METAR Data
IDs: Format: Raw Decoded Include TAF

Data at: 2142 UTC 26 May 2019

METAR for:KFFO (Wright-Patterson AFB, OH, US)
Text:KFFO 262056Z AUTO 34008KT 10SM SCT170 SCT200 27/19 A2999 RMK AO2 SLP153 T02730188 56014
Temperature: 27.3°C ( 81°F)
Dewpoint: 18.8°C ( 66°F) [RH = 60%]
Pressure (altimeter):29.99 inches Hg (1015.7 mb) [Sea level pressure: 1015.3 mb]
Winds:from the NNW (340 degrees) at 9 MPH (8 knots; 4.1 m/s)
Visibility:10 or more sm (16+ km)
Ceiling:at least 12,000 feet AGL
Clouds: scattered clouds at 17000 feet AGL, scattered clouds at 20000 feet AGL
QC Flag:automated observation with no human augmentation